createdAt,value
2017-12-11T00:00:10.232Z,11.27
2017-12-11T00:02:38.545Z,11.43
2017-12-11T00:05:06.815Z,10.32
2017-12-11T00:07:35.108Z,10.44
2017-12-11T00:10:03.375Z,10.67
2017-12-11T00:12:31.686Z,11.05
2017-12-11T00:15:00.001Z,10.62
2017-12-11T00:17:28.270Z,10.48
2017-12-11T00:19:57.667Z,10.04
2017-12-11T00:22:37.776Z,10.12
2017-12-11T00:25:06.040Z,10.56
2017-12-11T00:27:37.013Z,10.32
2017-12-11T00:30:05.279Z,10.76
2017-12-11T00:32:33.582Z,11.86
2017-12-11T00:35:01.839Z,10.72
2017-12-11T00:37:30.142Z,10.68
2017-12-11T00:39:58.452Z,10.84
2017-12-11T00:42:28.040Z,11.40
2017-12-11T00:44:56.700Z,9.18
2017-12-11T00:47:24.992Z,9.90
2017-12-11T00:49:53.295Z,11.38
2017-12-11T00:52:21.593Z,10.90
2017-12-11T00:54:49.861Z,10.62
2017-12-11T00:57:18.162Z,11.54
2017-12-11T00:59:46.419Z,11.52
2017-12-11T01:02:14.724Z,10.88
2017-12-11T01:04:42.990Z,9.82
2017-12-11T01:07:11.255Z,10.88
2017-12-11T01:09:39.540Z,10.58
2017-12-11T01:12:07.798Z,10.86
2017-12-11T01:14:36.086Z,10.34
2017-12-11T01:17:04.356Z,11.32
2017-12-11T01:19:33.671Z,11.44
2017-12-11T01:22:02.734Z,11.74
2017-12-11T01:24:32.079Z,10.00
2017-12-11T01:27:00.344Z,10.10
2017-12-11T01:29:28.640Z,10.72
2017-12-11T01:31:58.491Z,10.74
2017-12-11T01:34:27.228Z,12.46
2017-12-11T01:36:55.571Z,9.58
2017-12-11T01:39:23.891Z,10.48
2017-12-11T01:41:52.166Z,10.50
2017-12-11T01:44:20.432Z,11.28
2017-12-11T01:46:48.739Z,11.30
2017-12-11T01:49:17.026Z,11.60
2017-12-11T01:51:45.289Z,10.20
2017-12-11T01:54:13.614Z,10.78
2017-12-11T01:56:41.123Z,10.82
2017-12-11T01:59:09.396Z,11.72
2017-12-11T02:01:37.684Z,11.88
2017-12-11T02:04:05.974Z,10.28
2017-12-11T02:06:34.258Z,10.40
2017-12-11T02:09:03.799Z,11.00
2017-12-11T02:11:33.339Z,10.84
2017-12-11T02:14:02.313Z,11.64
2017-12-11T02:16:31.399Z,10.16
2017-12-11T02:18:59.691Z,10.92
2017-12-11T02:21:29.199Z,10.58
2017-12-11T02:23:57.431Z,10.32
2017-12-11T02:26:25.739Z,10.64
2017-12-11T02:28:54.013Z,10.50
2017-12-11T02:31:22.298Z,9.98
2017-12-11T02:33:50.596Z,11.48
2017-12-11T02:36:18.896Z,12.42
2017-12-11T02:38:46.396Z,12.62
2017-12-11T02:41:18.123Z,11.88
2017-12-11T02:43:46.380Z,13.02
2017-12-11T02:46:14.666Z,11.50
2017-12-11T02:48:42.974Z,12.40
2017-12-11T02:51:11.254Z,11.50
2017-12-11T02:53:39.558Z,11.82
2017-12-11T02:56:07.833Z,12.14
2017-12-11T02:58:36.159Z,13.88
2017-12-11T03:01:04.419Z,13.28
2017-12-11T03:03:33.680Z,14.08
2017-12-11T03:06:01.987Z,12.84
2017-12-11T03:08:30.264Z,12.32
2017-12-11T03:10:58.522Z,13.08
2017-12-11T03:13:26.751Z,13.62
2017-12-11T03:15:55.051Z,12.18
2017-12-11T03:18:23.304Z,11.42
2017-12-11T03:20:51.587Z,12.50
2017-12-11T03:23:19.879Z,12.62
2017-12-11T03:25:48.140Z,11.36
2017-12-11T03:28:16.433Z,11.90
2017-12-11T03:30:44.719Z,12.58
2017-12-11T03:33:12.980Z,13.44
2017-12-11T03:35:41.248Z,12.80
2017-12-11T03:38:09.538Z,11.90
2017-12-11T03:40:37.822Z,13.02
2017-12-11T03:43:06.123Z,12.26
2017-12-11T03:45:34.380Z,12.14
2017-12-11T03:48:06.432Z,11.32
2017-12-11T03:50:34.724Z,11.36
2017-12-11T03:53:02.994Z,12.18
2017-12-11T03:55:31.329Z,12.16
2017-12-11T03:57:59.623Z,12.02
2017-12-11T04:00:29.131Z,12.94
2017-12-11T04:02:58.445Z,12.00
2017-12-11T04:05:28.183Z,13.34
2017-12-11T04:07:57.514Z,12.88
2017-12-11T04:10:25.807Z,11.62
2017-12-11T04:12:54.071Z,11.04
2017-12-11T04:15:22.360Z,13.14
2017-12-11T04:17:50.655Z,11.50
2017-12-11T04:20:18.935Z,12.02
2017-12-11T04:22:47.231Z,12.52
2017-12-11T04:25:15.488Z,13.20
2017-12-11T04:27:43.758Z,12.60
2017-12-11T04:30:12.050Z,12.78
2017-12-11T04:32:40.336Z,11.94
2017-12-11T04:35:08.596Z,12.14
2017-12-11T04:37:36.127Z,12.66
2017-12-11T04:40:04.388Z,12.10
2017-12-11T04:42:33.861Z,12.74
2017-12-11T04:45:03.104Z,12.54
2017-12-11T04:47:32.804Z,11.14
2017-12-11T04:50:02.223Z,13.12
2017-12-11T04:52:30.491Z,12.82
2017-12-11T04:54:58.780Z,11.90
2017-12-11T04:57:27.911Z,12.84
2017-12-11T04:59:56.829Z,11.86
2017-12-11T05:02:25.090Z,13.46
2017-12-11T05:04:53.379Z,12.76
2017-12-11T05:07:21.640Z,12.26
2017-12-11T05:09:49.931Z,11.90
2017-12-11T05:12:18.196Z,11.76
2017-12-11T05:14:47.392Z,10.86
2017-12-11T05:17:15.680Z,12.62
2017-12-11T05:19:43.941Z,11.70
2017-12-11T05:22:12.227Z,10.88
2017-12-11T05:24:40.487Z,9.86
2017-12-11T05:27:08.792Z,10.76
2017-12-11T05:29:37.069Z,11.34
2017-12-11T05:32:05.356Z,10.12
2017-12-11T05:34:33.614Z,10.60
2017-12-11T05:37:01.907Z,9.68
2017-12-11T05:39:30.169Z,8.82
2017-12-11T05:41:58.424Z,10.16
2017-12-11T05:44:27.030Z,9.64
2017-12-11T05:46:55.284Z,9.12
2017-12-11T05:49:23.589Z,10.48
2017-12-11T05:51:51.852Z,9.94
2017-12-11T05:54:19.340Z,10.56
2017-12-11T05:56:47.627Z,10.20
2017-12-11T05:59:15.921Z,10.48
2017-12-11T06:01:44.199Z,11.02
2017-12-11T06:04:12.459Z,9.38
2017-12-11T06:06:40.743Z,9.65
2017-12-11T06:09:08.270Z,10.08
2017-12-11T06:11:36.577Z,10.10
2017-12-11T06:14:04.856Z,10.97
2017-12-11T06:16:33.124Z,10.57
2017-12-11T06:19:01.491Z,10.53
2017-12-11T06:21:29.755Z,9.43
2017-12-11T06:24:04.447Z,11.12
2017-12-11T06:26:33.931Z,10.35
2017-12-11T06:29:01.484Z,10.85
2017-12-11T06:31:29.789Z,11.18
2017-12-11T06:34:03.757Z,10.87
2017-12-11T06:36:32.291Z,11.53
2017-12-11T06:39:00.551Z,12.16
2017-12-11T06:41:28.835Z,13.20
2017-12-11T06:43:57.096Z,13.30
2017-12-11T06:46:25.383Z,13.34
2017-12-11T06:48:53.673Z,12.90
2017-12-11T06:51:21.958Z,13.92
2017-12-11T06:53:50.227Z,13.90
2017-12-11T06:56:18.491Z,11.92
2017-12-11T06:58:46.797Z,12.76
2017-12-11T07:01:15.095Z,13.70
2017-12-11T07:03:43.359Z,13.84
2017-12-11T07:06:11.660Z,12.72
2017-12-11T07:08:39.967Z,13.68
2017-12-11T07:11:08.239Z,12.23
2017-12-11T07:13:36.503Z,14.22
2017-12-11T07:16:04.802Z,12.37
2017-12-11T07:18:33.068Z,12.75
2017-12-11T07:21:02.476Z,12.92
2017-12-11T07:23:31.587Z,11.26
2017-12-11T07:25:59.880Z,13.05
2017-12-11T07:28:29.033Z,11.96
2017-12-11T07:30:58.131Z,15.02
2017-12-11T07:33:27.839Z,12.15
2017-12-11T07:35:56.818Z,14.63
2017-12-11T07:38:25.084Z,14.52
2017-12-11T07:40:53.364Z,13.08
2017-12-11T07:43:20.898Z,13.18
2017-12-11T07:45:49.205Z,14.80
2017-12-11T07:48:17.505Z,14.76
2017-12-11T07:50:45.767Z,15.43
2017-12-11T07:53:14.071Z,15.88
2017-12-11T07:55:42.340Z,14.58
2017-12-11T07:58:10.604Z,14.08
2017-12-11T08:00:38.899Z,16.92
2017-12-11T08:03:07.163Z,16.00
2017-12-11T08:05:35.467Z,16.86
2017-12-11T08:08:03.731Z,15.58
2017-12-11T08:10:32.023Z,16.84
2017-12-11T08:13:00.316Z,16.65
2017-12-11T08:15:28.661Z,15.62
2017-12-11T08:17:59.997Z,17.40
2017-12-11T08:20:28.290Z,17.73
2017-12-11T08:22:56.583Z,15.63
2017-12-11T08:25:24.851Z,17.50
2017-12-11T08:27:52.379Z,15.67
2017-12-11T08:30:23.963Z,17.28
2017-12-11T08:32:53.052Z,18.28
2017-12-11T08:35:21.923Z,19.47
2017-12-11T08:37:50.228Z,17.16
2017-12-11T08:40:18.490Z,17.23
2017-12-11T08:42:46.784Z,17.66
2017-12-11T08:45:15.047Z,15.63
2017-12-11T08:47:43.351Z,17.34
2017-12-11T08:50:11.611Z,16.68
2017-12-11T08:52:39.905Z,15.40
2017-12-11T08:55:09.445Z,16.45
2017-12-11T08:57:38.951Z,17.57
2017-12-11T09:00:08.196Z,16.15
2017-12-11T09:02:37.270Z,17.64
2017-12-11T09:05:05.559Z,18.94
2017-12-11T09:07:33.859Z,20.45
2017-12-11T09:10:02.119Z,18.58
2017-12-11T09:12:30.415Z,16.23
2017-12-11T09:14:58.748Z,19.02
2017-12-11T09:17:27.011Z,16.70
2017-12-11T09:19:54.507Z,18.82
2017-12-11T09:22:22.804Z,17.48
2017-12-11T09:24:51.067Z,18.48
2017-12-11T09:27:19.364Z,17.98
2017-12-11T09:29:47.620Z,16.48
2017-12-11T09:32:15.926Z,16.87
2017-12-11T09:34:44.198Z,17.92
2017-12-11T09:37:12.464Z,16.97
2017-12-11T09:39:40.744Z,17.68
2017-12-11T09:42:09.060Z,15.67
2017-12-11T09:44:38.239Z,16.35
2017-12-11T09:47:07.145Z,17.67
2017-12-11T09:49:35.441Z,16.76
2017-12-11T09:52:03.699Z,16.58
2017-12-11T09:54:31.964Z,17.02
2017-12-11T09:57:00.267Z,17.80
2017-12-11T09:59:28.535Z,16.95
2017-12-11T10:01:56.802Z,17.73
2017-12-11T10:04:25.111Z,15.88
2017-12-11T10:06:53.371Z,19.27
2017-12-11T10:09:21.639Z,20.22
2017-12-11T10:11:50.441Z,24.35
2017-12-11T10:14:18.706Z,38.85
2017-12-11T10:16:47.004Z,82.03
2017-12-11T10:19:15.274Z,23.83
2017-12-11T10:21:43.565Z,26.38
2017-12-11T10:24:11.911Z,33.62
2017-12-11T10:26:40.143Z,37.02
2017-12-11T10:29:14.472Z,42.35
2017-12-11T10:31:42.734Z,21.67
2017-12-11T10:34:11.029Z,19.15
2017-12-11T10:36:39.298Z,26.20
2017-12-11T10:39:07.687Z,25.27
2017-12-11T10:41:35.948Z,21.55
2017-12-11T10:44:04.207Z,21.83
2017-12-11T10:46:33.760Z,25.18
2017-12-11T10:49:02.060Z,22.55
2017-12-11T10:51:30.328Z,20.88
2017-12-11T10:53:58.884Z,21.35
2017-12-11T10:56:27.151Z,19.22
2017-12-11T10:58:55.452Z,19.28
2017-12-11T11:01:23.725Z,19.83
2017-12-11T11:03:51.998Z,18.92
2017-12-11T11:06:20.301Z,19.82
2017-12-11T11:08:48.571Z,21.07
2017-12-11T11:11:16.859Z,22.57
2017-12-11T11:13:45.122Z,18.08
2017-12-11T11:16:13.420Z,21.60
2017-12-11T11:18:41.679Z,18.13
2017-12-11T11:21:13.582Z,18.05
2017-12-11T11:23:41.884Z,31.95
2017-12-11T11:26:10.151Z,66.72
2017-12-11T11:28:39.820Z,22.27
2017-12-11T11:31:09.103Z,35.08
2017-12-11T11:33:38.307Z,37.57
2017-12-11T11:36:06.572Z,34.60
2017-12-11T11:38:34.875Z,28.77
2017-12-11T11:41:03.178Z,25.13
2017-12-11T11:43:32.342Z,25.88
2017-12-11T11:46:00.623Z,23.07
2017-12-11T11:48:28.919Z,18.85
2017-12-11T11:50:57.176Z,20.97
2017-12-11T11:53:25.470Z,20.43
2017-12-11T11:55:53.740Z,17.43
2017-12-11T11:58:22.048Z,19.67
2017-12-11T12:00:50.308Z,15.43
2017-12-11T12:03:18.573Z,20.45
2017-12-11T12:05:46.865Z,16.30
2017-12-11T12:08:15.126Z,17.62
2017-12-11T12:10:43.414Z,16.93
2017-12-11T12:13:11.708Z,16.10
2017-12-11T12:15:39.968Z,16.95
2017-12-11T12:18:09.418Z,15.92
2017-12-11T12:20:38.417Z,15.37
2017-12-11T12:23:07.812Z,15.53
2017-12-11T12:25:36.067Z,15.28
2017-12-11T12:28:04.332Z,15.75
2017-12-11T12:30:33.779Z,14.27
2017-12-11T12:33:02.048Z,14.98
2017-12-11T12:35:30.352Z,15.63
2017-12-11T12:37:58.618Z,14.82
2017-12-11T12:40:26.902Z,14.80
2017-12-11T12:42:55.167Z,14.68
2017-12-11T12:45:23.461Z,13.18
2017-12-11T12:47:51.723Z,13.68
2017-12-11T12:50:20.016Z,15.58
2017-12-11T12:52:48.283Z,15.28
2017-12-11T12:55:16.576Z,14.33
2017-12-11T12:57:45.755Z,15.40
2017-12-11T13:00:14.064Z,17.08
2017-12-11T13:02:42.326Z,16.93
2017-12-11T13:05:10.587Z,14.55
2017-12-11T13:07:38.880Z,14.68
2017-12-11T13:10:08.187Z,17.20
2017-12-11T13:12:36.607Z,18.58
2017-12-11T13:15:04.863Z,16.98
2017-12-11T13:17:33.964Z,17.48
2017-12-11T13:20:02.267Z,16.38
2017-12-11T13:22:30.527Z,18.38
2017-12-11T13:24:59.411Z,17.63
2017-12-11T13:27:27.676Z,19.42
2017-12-11T13:29:55.939Z,18.33
2017-12-11T13:32:24.227Z,18.07
2017-12-11T13:34:52.490Z,20.93
2017-12-11T13:37:21.132Z,21.52
2017-12-11T13:39:48.623Z,22.68
2017-12-11T13:42:16.936Z,22.95
2017-12-11T13:44:45.200Z,24.40
2017-12-11T13:47:13.463Z,21.93
2017-12-11T13:49:41.767Z,25.15
2017-12-11T13:52:10.028Z,23.02
2017-12-11T13:54:40.073Z,23.10
2017-12-11T13:57:09.635Z,23.43
2017-12-11T13:59:41.621Z,23.68
2017-12-11T14:02:09.916Z,24.48
2017-12-11T14:04:39.214Z,28.05
2017-12-11T14:07:08.384Z,23.77
2017-12-11T14:09:36.676Z,24.32
2017-12-11T14:12:04.944Z,23.03
2017-12-11T14:14:33.705Z,21.25
2017-12-11T14:17:02.903Z,21.32
2017-12-11T14:19:31.888Z,21.03
2017-12-11T14:22:00.175Z,21.70
2017-12-11T14:24:28.467Z,20.18
2017-12-11T14:26:56.763Z,21.70
2017-12-11T14:29:25.039Z,23.55
2017-12-11T14:31:53.308Z,22.90
2017-12-11T14:34:21.648Z,22.10
2017-12-11T14:36:49.931Z,24.90
2017-12-11T14:39:18.235Z,22.47
2017-12-11T14:41:46.507Z,21.65
2017-12-11T14:44:14.769Z,19.48
2017-12-11T14:46:43.056Z,19.40
2017-12-11T14:49:10.554Z,19.40
2017-12-11T14:51:38.858Z,21.43
2017-12-11T14:54:08.728Z,18.90
2017-12-11T14:56:38.315Z,22.02
2017-12-11T14:59:06.571Z,20.37
2017-12-11T15:01:34.871Z,22.00
2017-12-11T15:04:03.247Z,21.08
2017-12-11T15:06:32.396Z,20.40
2017-12-11T15:09:00.717Z,20.52
2017-12-11T15:11:28.984Z,21.04
2017-12-11T15:13:57.267Z,21.52
2017-12-11T15:16:25.522Z,22.54
2017-12-11T15:18:53.811Z,23.26
2017-12-11T15:21:22.067Z,23.18
2017-12-11T15:23:50.356Z,23.68
2017-12-11T15:26:18.611Z,22.52
2017-12-11T15:28:46.912Z,21.14
2017-12-11T15:31:15.207Z,19.88
2017-12-11T15:33:43.464Z,20.40
2017-12-11T15:36:11.727Z,21.28
2017-12-11T15:38:40.094Z,22.36
2017-12-11T15:41:09.644Z,23.84
2017-12-11T15:43:39.091Z,20.24
2017-12-11T15:46:08.394Z,21.18
2017-12-11T15:48:36.666Z,20.00
2017-12-11T15:51:04.935Z,20.36
2017-12-11T15:53:33.318Z,18.98
2017-12-11T15:56:02.651Z,21.50
2017-12-11T15:58:30.954Z,19.28
2017-12-11T16:00:59.248Z,20.40
2017-12-11T16:03:27.543Z,19.34
2017-12-11T16:05:55.035Z,18.42
2017-12-11T16:08:23.289Z,23.82
2017-12-11T16:10:51.589Z,20.58
2017-12-11T16:13:19.856Z,21.18
2017-12-11T16:15:48.151Z,19.74
2017-12-11T16:18:15.643Z,18.82
2017-12-11T16:20:43.933Z,20.02
2017-12-11T16:23:12.196Z,21.96
2017-12-11T16:25:40.493Z,21.02
2017-12-11T16:28:08.797Z,21.78
2017-12-11T16:30:38.398Z,22.04
2017-12-11T16:33:06.664Z,22.22
2017-12-11T16:35:34.957Z,21.12
2017-12-11T16:38:08.528Z,20.92
2017-12-11T16:40:37.997Z,21.24
2017-12-11T16:43:06.268Z,21.90
2017-12-11T16:45:34.547Z,24.28
2017-12-11T16:48:03.480Z,22.54
2017-12-11T16:50:31.851Z,26.56
2017-12-11T16:53:00.114Z,21.96
2017-12-11T16:55:27.603Z,25.22
2017-12-11T16:57:56.815Z,24.48
2017-12-11T17:00:25.083Z,23.44
2017-12-11T17:02:53.373Z,21.94
2017-12-11T17:05:21.643Z,21.52
2017-12-11T17:07:49.931Z,23.18
2017-12-11T17:10:18.220Z,23.06
2017-12-11T17:12:46.489Z,20.74
2017-12-11T17:15:14.743Z,25.96
2017-12-11T17:17:43.033Z,25.84
2017-12-11T17:20:10.519Z,26.14
2017-12-11T17:22:38.806Z,24.80
2017-12-11T17:25:08.499Z,22.96
2017-12-11T17:27:37.974Z,24.40
2017-12-11T17:30:06.287Z,27.66
2017-12-11T17:32:34.573Z,24.24
2017-12-11T17:35:03.689Z,23.18
2017-12-11T17:37:32.543Z,25.08
2017-12-11T17:40:00.804Z,25.06
2017-12-11T17:42:29.105Z,23.36
2017-12-11T17:44:57.368Z,22.84
2017-12-11T17:47:25.652Z,21.98
2017-12-11T17:49:53.944Z,24.20
2017-12-11T17:52:22.230Z,25.34
2017-12-11T17:54:50.483Z,24.38
2017-12-11T17:57:18.773Z,23.62
2017-12-11T17:59:47.031Z,25.78
2017-12-11T18:02:15.331Z,22.68
2017-12-11T18:04:43.600Z,21.06
2017-12-11T18:07:11.889Z,22.14
2017-12-11T18:09:40.143Z,22.88
2017-12-11T18:12:09.637Z,22.54
2017-12-11T18:14:38.388Z,22.24
2017-12-11T18:17:06.690Z,21.16
2017-12-11T18:19:34.955Z,18.86
2017-12-11T18:22:03.982Z,21.02
2017-12-11T18:24:32.699Z,19.88
2017-12-11T18:27:00.960Z,21.92
2017-12-11T18:29:29.219Z,18.30
2017-12-11T18:31:57.511Z,20.56
2017-12-11T18:34:25.780Z,22.20
2017-12-11T18:36:54.075Z,29.24
2017-12-11T18:39:21.564Z,21.82
2017-12-11T18:41:49.814Z,21.26
2017-12-11T18:44:17.330Z,22.02
2017-12-11T18:46:45.587Z,25.04
2017-12-11T18:49:14.903Z,26.06
2017-12-11T18:51:43.188Z,22.22
2017-12-11T18:54:11.447Z,22.90
2017-12-11T18:56:39.727Z,20.76
2017-12-11T18:59:08.773Z,24.70
2017-12-11T19:01:38.120Z,24.38
2017-12-11T19:04:07.169Z,25.96
2017-12-11T19:06:35.460Z,24.24
2017-12-11T19:09:03.751Z,23.74
2017-12-11T19:11:33.204Z,22.98
2017-12-11T19:14:01.934Z,24.46
2017-12-11T19:16:31.998Z,22.86
2017-12-11T19:19:00.259Z,21.10
2017-12-11T19:21:28.691Z,20.70
2017-12-11T19:23:56.985Z,22.76
2017-12-11T19:26:25.308Z,20.14
2017-12-11T19:28:53.610Z,22.06
2017-12-11T19:31:21.928Z,22.58
2017-12-11T19:33:50.239Z,23.62
2017-12-11T19:36:18.560Z,25.26
2017-12-11T19:38:46.857Z,23.94
2017-12-11T19:41:15.198Z,26.74
2017-12-11T19:43:43.484Z,25.80
2017-12-11T19:46:11.773Z,26.54
2017-12-11T19:48:40.030Z,24.58
2017-12-11T19:51:09.312Z,24.34
2017-12-11T19:53:37.960Z,19.26
2017-12-11T19:56:06.236Z,22.44
2017-12-11T19:58:34.564Z,21.56
2017-12-11T20:01:03.375Z,21.56
2017-12-11T20:03:32.443Z,23.14
2017-12-11T20:06:00.711Z,23.74
2017-12-11T20:08:29.140Z,24.18
2017-12-11T20:10:57.454Z,24.30
2017-12-11T20:13:25.691Z,23.88
2017-12-11T20:15:53.987Z,23.44
2017-12-11T20:18:22.279Z,25.48
2017-12-11T20:20:50.540Z,25.40
2017-12-11T20:23:18.887Z,23.02
2017-12-11T20:25:47.147Z,25.36
2017-12-11T20:28:15.474Z,25.32
2017-12-11T20:30:43.771Z,28.40
2017-12-11T20:33:13.978Z,25.94
2017-12-11T20:35:42.276Z,25.08
2017-12-11T20:38:18.667Z,24.98
2017-12-11T20:40:55.110Z,27.42
2017-12-11T20:43:27.016Z,29.68
2017-12-11T20:45:55.376Z,28.72
2017-12-11T20:48:23.690Z,29.57
2017-12-11T20:50:52.021Z,26.95
2017-12-11T20:53:20.318Z,27.73
2017-12-11T20:55:58.726Z,25.54
2017-12-11T20:58:26.254Z,27.23
2017-12-11T21:00:54.538Z,26.28
2017-12-11T21:03:22.840Z,25.28
2017-12-11T21:05:52.127Z,27.10
2017-12-11T21:08:20.389Z,25.25
2017-12-11T21:10:48.669Z,23.92
2017-12-11T21:13:16.973Z,23.33
2017-12-11T21:15:45.272Z,25.22
2017-12-11T21:18:14.560Z,26.52
2017-12-11T21:20:42.831Z,23.17
2017-12-11T21:23:11.126Z,23.87
2017-12-11T21:25:39.395Z,25.95
2017-12-11T21:28:07.695Z,22.70
2017-12-11T21:30:42.040Z,23.52
2017-12-11T21:33:10.333Z,25.42
2017-12-11T21:35:42.266Z,23.37
2017-12-11T21:38:10.560Z,21.77
2017-12-11T21:40:40.884Z,23.92
2017-12-11T21:43:09.152Z,20.55
2017-12-11T21:45:38.319Z,21.28
2017-12-11T21:48:06.615Z,23.37
2017-12-11T21:50:38.623Z,22.57
2017-12-11T21:53:08.083Z,22.13
2017-12-11T21:55:42.148Z,23.60
2017-12-11T21:58:10.461Z,19.48
2017-12-11T22:00:40.769Z,21.82
2017-12-11T22:03:09.597Z,19.78
2017-12-11T22:05:39.024Z,20.00
2017-12-11T22:08:08.392Z,19.88
2017-12-11T22:10:53.273Z,19.85
2017-12-11T22:13:21.584Z,16.35
2017-12-11T22:15:55.737Z,16.27
2017-12-11T22:18:27.579Z,16.33
2017-12-11T22:20:55.847Z,15.82
2017-12-11T22:23:26.590Z,16.90
2017-12-11T22:25:54.855Z,16.35
2017-12-11T22:28:24.670Z,15.05
2017-12-11T22:30:53.076Z,17.75
2017-12-11T22:33:22.091Z,17.95
2017-12-11T22:35:50.392Z,17.88
2017-12-11T22:38:18.707Z,18.50
2017-12-11T22:40:47.307Z,17.92
2017-12-11T22:43:15.651Z,18.15
2017-12-11T22:45:43.920Z,17.77
2017-12-11T22:48:16.038Z,18.23
2017-12-11T22:50:44.334Z,16.50
2017-12-11T22:53:12.599Z,15.95
2017-12-11T22:55:40.901Z,16.33
2017-12-11T22:58:15.121Z,17.40
2017-12-11T23:00:43.424Z,18.15
2017-12-11T23:03:11.755Z,15.13
2017-12-11T23:05:40.013Z,18.27
2017-12-11T23:08:20.914Z,17.27
2017-12-11T23:10:49.184Z,15.52
2017-12-11T23:13:17.518Z,16.50
2017-12-11T23:15:45.773Z,17.72
2017-12-11T23:18:14.091Z,19.77
2017-12-11T23:20:42.348Z,18.65
2017-12-11T23:23:20.506Z,19.10
2017-12-11T23:25:48.771Z,20.80
2017-12-11T23:28:22.830Z,16.72
2017-12-11T23:30:51.131Z,16.30
2017-12-11T23:33:19.516Z,17.28
2017-12-11T23:35:47.751Z,17.90
2017-12-11T23:38:22.997Z,19.57
2017-12-11T23:40:51.255Z,17.27
2017-12-11T23:43:20.572Z,18.13
2017-12-11T23:45:48.846Z,19.53
2017-12-11T23:48:17.148Z,17.75
2017-12-11T23:50:45.435Z,19.32
2017-12-11T23:53:19.583Z,19.18
2017-12-11T23:55:47.876Z,19.38
2017-12-11T23:58:17.116Z,19.03
